sensor_id;sensor_type;location;lat;lon;timestamp;P1;durP1;ratioP1;P2;durP2;ratioP2
12363;SDS011;6246;50.826;4.712;2024-01-11T00:00:28;39.87;;;33.20;;
12363;SDS011;6246;50.826;4.712;2024-01-11T00:02:54;41.23;;;31.80;;
12363;SDS011;6246;50.826;4.712;2024-01-11T00:05:20;39.63;;;31.87;;
12363;SDS011;6246;50.826;4.712;2024-01-11T00:07:47;36.63;;;30.23;;
12363;SDS011;6246;50.826;4.712;2024-01-11T00:10:13;39.20;;;30.60;;
12363;SDS011;6246;50.826;4.712;2024-01-11T00:12:39;34.40;;;28.07;;
12363;SDS011;6246;50.826;4.712;2024-01-11T00:15:05;36.60;;;28.77;;
12363;SDS011;6246;50.826;4.712;2024-01-11T00:17:31;34.63;;;28.53;;
12363;SDS011;6246;50.826;4.712;2024-01-11T00:19:57;31.43;;;26.03;;
12363;SDS011;6246;50.826;4.712;2024-01-11T00:22:23;34.30;;;26.73;;
12363;SDS011;6246;50.826;4.712;2024-01-11T00:24:49;31.90;;;26.03;;
12363;SDS011;6246;50.826;4.712;2024-01-11T00:27:15;32.03;;;25.50;;
12363;SDS011;6246;50.826;4.712;2024-01-11T00:29:41;36.83;;;24.30;;
12363;SDS011;6246;50.826;4.712;2024-01-11T00:32:08;32.00;;;24.80;;
12363;SDS011;6246;50.826;4.712;2024-01-11T00:34:34;30.00;;;23.83;;
12363;SDS011;6246;50.826;4.712;2024-01-11T00:37:00;33.13;;;25.33;;
12363;SDS011;6246;50.826;4.712;2024-01-11T00:39:27;41.63;;;28.33;;
12363;SDS011;6246;50.826;4.712;2024-01-11T00:41:54;48.60;;;31.13;;
12363;SDS011;6246;50.826;4.712;2024-01-11T00:44:20;49.43;;;30.43;;
12363;SDS011;6246;50.826;4.712;2024-01-11T00:46:46;47.00;;;27.97;;
12363;SDS011;6246;50.826;4.712;2024-01-11T00:49:12;43.60;;;29.10;;
12363;SDS011;6246;50.826;4.712;2024-01-11T00:51:38;40.90;;;27.40;;
12363;SDS011;6246;50.826;4.712;2024-01-11T00:54:04;47.13;;;28.43;;
12363;SDS011;6246;50.826;4.712;2024-01-11T00:56:30;47.97;;;25.23;;
12363;SDS011;6246;50.826;4.712;2024-01-11T00:58:56;41.53;;;26.13;;
12363;SDS011;6246;50.826;4.712;2024-01-11T01:01:22;44.07;;;25.40;;
12363;SDS011;6246;50.826;4.712;2024-01-11T01:03:48;46.13;;;26.03;;
12363;SDS011;6246;50.826;4.712;2024-01-11T01:06:14;43.17;;;25.80;;
12363;SDS011;6246;50.826;4.712;2024-01-11T01:08:40;35.87;;;24.33;;
12363;SDS011;6246;50.826;4.712;2024-01-11T01:11:06;38.23;;;25.17;;
12363;SDS011;6246;50.826;4.712;2024-01-11T01:13:32;39.43;;;24.20;;
12363;SDS011;6246;50.826;4.712;2024-01-11T01:15:58;38.73;;;24.10;;
12363;SDS011;6246;50.826;4.712;2024-01-11T01:18:24;36.57;;;24.50;;
12363;SDS011;6246;50.826;4.712;2024-01-11T01:20:50;34.00;;;22.30;;
12363;SDS011;6246;50.826;4.712;2024-01-11T01:23:16;33.87;;;22.70;;
12363;SDS011;6246;50.826;4.712;2024-01-11T01:25:43;34.70;;;22.47;;
12363;SDS011;6246;50.826;4.712;2024-01-11T01:28:09;32.27;;;21.73;;
12363;SDS011;6246;50.826;4.712;2024-01-11T01:30:35;30.40;;;21.57;;
12363;SDS011;6246;50.826;4.712;2024-01-11T01:33:01;31.10;;;20.43;;
12363;SDS011;6246;50.826;4.712;2024-01-11T01:35:28;29.23;;;20.37;;
12363;SDS011;6246;50.826;4.712;2024-01-11T01:37:54;29.70;;;20.67;;
12363;SDS011;6246;50.826;4.712;2024-01-11T01:40:20;27.77;;;19.43;;
12363;SDS011;6246;50.826;4.712;2024-01-11T01:42:46;28.23;;;18.70;;
12363;SDS011;6246;50.826;4.712;2024-01-11T01:45:12;28.33;;;19.30;;
12363;SDS011;6246;50.826;4.712;2024-01-11T01:47:41;25.23;;;18.37;;
12363;SDS011;6246;50.826;4.712;2024-01-11T01:50:10;24.70;;;18.43;;
12363;SDS011;6246;50.826;4.712;2024-01-11T01:52:37;24.27;;;17.07;;
12363;SDS011;6246;50.826;4.712;2024-01-11T01:55:05;26.43;;;18.53;;
12363;SDS011;6246;50.826;4.712;2024-01-11T01:57:32;23.67;;;17.27;;
12363;SDS011;6246;50.826;4.712;2024-01-11T01:59:58;25.67;;;17.63;;
12363;SDS011;6246;50.826;4.712;2024-01-11T02:02:24;23.67;;;16.77;;
12363;SDS011;6246;50.826;4.712;2024-01-11T02:04:51;21.83;;;15.93;;
12363;SDS011;6246;50.826;4.712;2024-01-11T02:07:17;25.13;;;16.50;;
12363;SDS011;6246;50.826;4.712;2024-01-11T02:09:44;22.37;;;15.43;;
12363;SDS011;6246;50.826;4.712;2024-01-11T02:12:10;23.73;;;16.10;;
12363;SDS011;6246;50.826;4.712;2024-01-11T02:14:38;21.97;;;15.63;;
12363;SDS011;6246;50.826;4.712;2024-01-11T02:17:04;22.97;;;15.87;;
12363;SDS011;6246;50.826;4.712;2024-01-11T02:19:30;22.40;;;15.80;;
12363;SDS011;6246;50.826;4.712;2024-01-11T02:21:56;22.33;;;15.30;;
12363;SDS011;6246;50.826;4.712;2024-01-11T02:24:25;21.50;;;15.27;;
12363;SDS011;6246;50.826;4.712;2024-01-11T02:27:01;22.63;;;14.67;;
12363;SDS011;6246;50.826;4.712;2024-01-11T02:29:27;20.17;;;13.83;;
12363;SDS011;6246;50.826;4.712;2024-01-11T02:31:56;19.83;;;14.20;;
12363;SDS011;6246;50.826;4.712;2024-01-11T02:34:26;19.87;;;14.27;;
12363;SDS011;6246;50.826;4.712;2024-01-11T02:36:55;18.20;;;13.60;;
12363;SDS011;6246;50.826;4.712;2024-01-11T02:39:22;19.77;;;13.53;;
12363;SDS011;6246;50.826;4.712;2024-01-11T02:41:52;18.10;;;13.40;;
12363;SDS011;6246;50.826;4.712;2024-01-11T02:44:18;19.77;;;12.93;;
12363;SDS011;6246;50.826;4.712;2024-01-11T02:46:44;18.83;;;12.50;;
12363;SDS011;6246;50.826;4.712;2024-01-11T02:49:10;21.63;;;13.07;;
12363;SDS011;6246;50.826;4.712;2024-01-11T02:51:36;19.53;;;13.67;;
12363;SDS011;6246;50.826;4.712;2024-01-11T02:54:03;20.37;;;12.47;;
12363;SDS011;6246;50.826;4.712;2024-01-11T02:56:29;17.70;;;12.57;;
12363;SDS011;6246;50.826;4.712;2024-01-11T02:58:55;17.23;;;12.23;;
12363;SDS011;6246;50.826;4.712;2024-01-11T03:01:21;15.80;;;12.07;;
12363;SDS011;6246;50.826;4.712;2024-01-11T03:03:47;17.63;;;12.30;;
12363;SDS011;6246;50.826;4.712;2024-01-11T03:06:13;19.13;;;12.93;;
12363;SDS011;6246;50.826;4.712;2024-01-11T03:08:39;16.53;;;12.00;;
12363;SDS011;6246;50.826;4.712;2024-01-11T03:11:05;16.07;;;11.70;;
12363;SDS011;6246;50.826;4.712;2024-01-11T03:13:31;18.57;;;12.60;;
12363;SDS011;6246;50.826;4.712;2024-01-11T03:15:57;15.57;;;11.60;;
12363;SDS011;6246;50.826;4.712;2024-01-11T03:18:23;15.57;;;11.43;;
12363;SDS011;6246;50.826;4.712;2024-01-11T03:20:49;16.43;;;12.03;;
12363;SDS011;6246;50.826;4.712;2024-01-11T03:23:16;15.40;;;11.77;;
12363;SDS011;6246;50.826;4.712;2024-01-11T03:25:42;15.47;;;10.90;;
12363;SDS011;6246;50.826;4.712;2024-01-11T03:28:08;14.90;;;11.07;;
12363;SDS011;6246;50.826;4.712;2024-01-11T03:30:34;14.23;;;11.10;;
12363;SDS011;6246;50.826;4.712;2024-01-11T03:33:00;15.73;;;10.57;;
12363;SDS011;6246;50.826;4.712;2024-01-11T03:35:26;17.87;;;11.13;;
12363;SDS011;6246;50.826;4.712;2024-01-11T03:37:52;14.97;;;10.73;;
12363;SDS011;6246;50.826;4.712;2024-01-11T03:40:18;14.10;;;10.20;;
12363;SDS011;6246;50.826;4.712;2024-01-11T03:42:44;15.20;;;10.20;;
12363;SDS011;6246;50.826;4.712;2024-01-11T03:45:10;15.17;;;10.00;;
12363;SDS011;6246;50.826;4.712;2024-01-11T03:47:36;14.10;;;10.07;;
12363;SDS011;6246;50.826;4.712;2024-01-11T03:50:02;13.93;;;10.03;;
12363;SDS011;6246;50.826;4.712;2024-01-11T03:52:28;16.00;;;10.70;;
12363;SDS011;6246;50.826;4.712;2024-01-11T03:54:54;14.13;;;10.07;;
12363;SDS011;6246;50.826;4.712;2024-01-11T03:57:21;13.40;;;9.67;;
12363;SDS011;6246;50.826;4.712;2024-01-11T03:59:47;12.33;;;9.23;;
12363;SDS011;6246;50.826;4.712;2024-01-11T04:02:13;12.60;;;9.33;;
12363;SDS011;6246;50.826;4.712;2024-01-11T04:04:39;14.03;;;9.90;;
12363;SDS011;6246;50.826;4.712;2024-01-11T04:07:06;12.80;;;9.53;;
12363;SDS011;6246;50.826;4.712;2024-01-11T04:09:32;14.03;;;9.60;;
12363;SDS011;6246;50.826;4.712;2024-01-11T04:11:58;13.17;;;9.70;;
12363;SDS011;6246;50.826;4.712;2024-01-11T04:14:24;13.00;;;9.30;;
12363;SDS011;6246;50.826;4.712;2024-01-11T04:16:50;13.93;;;9.90;;
12363;SDS011;6246;50.826;4.712;2024-01-11T04:19:16;12.30;;;9.50;;
12363;SDS011;6246;50.826;4.712;2024-01-11T04:21:42;14.97;;;10.20;;
12363;SDS011;6246;50.826;4.712;2024-01-11T04:24:08;13.47;;;9.60;;
12363;SDS011;6246;50.826;4.712;2024-01-11T04:26:34;12.83;;;9.07;;
12363;SDS011;6246;50.826;4.712;2024-01-11T04:29:00;13.80;;;9.30;;
12363;SDS011;6246;50.826;4.712;2024-01-11T04:31:26;13.33;;;9.83;;
12363;SDS011;6246;50.826;4.712;2024-01-11T04:33:52;13.73;;;9.33;;
12363;SDS011;6246;50.826;4.712;2024-01-11T04:36:18;13.57;;;9.27;;
12363;SDS011;6246;50.826;4.712;2024-01-11T04:38:44;13.90;;;10.07;;
12363;SDS011;6246;50.826;4.712;2024-01-11T04:41:11;14.30;;;9.57;;
12363;SDS011;6246;50.826;4.712;2024-01-11T04:43:40;11.87;;;9.20;;
12363;SDS011;6246;50.826;4.712;2024-01-11T04:48:59;12.20;;;8.53;;
12363;SDS011;6246;50.826;4.712;2024-01-11T04:51:25;13.17;;;8.90;;
12363;SDS011;6246;50.826;4.712;2024-01-11T04:53:51;11.47;;;8.80;;
12363;SDS011;6246;50.826;4.712;2024-01-11T04:56:17;13.13;;;9.43;;
12363;SDS011;6246;50.826;4.712;2024-01-11T04:58:43;12.27;;;9.37;;
12363;SDS011;6246;50.826;4.712;2024-01-11T05:01:16;13.47;;;9.50;;
12363;SDS011;6246;50.826;4.712;2024-01-11T05:03:42;13.33;;;9.43;;
12363;SDS011;6246;50.826;4.712;2024-01-11T05:06:14;12.77;;;8.97;;
12363;SDS011;6246;50.826;4.712;2024-01-11T05:08:40;11.53;;;8.43;;
12363;SDS011;6246;50.826;4.712;2024-01-11T05:11:06;12.17;;;8.97;;
12363;SDS011;6246;50.826;4.712;2024-01-11T05:13:32;11.90;;;8.97;;
12363;SDS011;6246;50.826;4.712;2024-01-11T05:15:58;11.57;;;8.93;;
12363;SDS011;6246;50.826;4.712;2024-01-11T05:18:24;12.50;;;8.67;;
12363;SDS011;6246;50.826;4.712;2024-01-11T05:20:50;12.30;;;8.47;;
12363;SDS011;6246;50.826;4.712;2024-01-11T05:23:16;12.47;;;9.30;;
12363;SDS011;6246;50.826;4.712;2024-01-11T05:25:42;12.80;;;9.27;;
12363;SDS011;6246;50.826;4.712;2024-01-11T05:28:08;13.00;;;8.57;;
12363;SDS011;6246;50.826;4.712;2024-01-11T05:30:34;12.23;;;8.50;;
12363;SDS011;6246;50.826;4.712;2024-01-11T05:33:00;11.20;;;8.57;;
12363;SDS011;6246;50.826;4.712;2024-01-11T05:35:26;12.50;;;8.73;;
12363;SDS011;6246;50.826;4.712;2024-01-11T05:37:52;13.37;;;8.63;;
12363;SDS011;6246;50.826;4.712;2024-01-11T05:40:20;12.30;;;8.90;;
12363;SDS011;6246;50.826;4.712;2024-01-11T05:42:46;12.23;;;8.77;;
12363;SDS011;6246;50.826;4.712;2024-01-11T05:45:12;11.90;;;8.37;;
12363;SDS011;6246;50.826;4.712;2024-01-11T05:47:41;12.27;;;8.30;;
12363;SDS011;6246;50.826;4.712;2024-01-11T05:50:08;12.77;;;8.40;;
12363;SDS011;6246;50.826;4.712;2024-01-11T05:52:34;12.13;;;8.33;;
12363;SDS011;6246;50.826;4.712;2024-01-11T05:55:00;13.50;;;8.50;;
12363;SDS011;6246;50.826;4.712;2024-01-11T05:57:26;12.73;;;9.03;;
12363;SDS011;6246;50.826;4.712;2024-01-11T05:59:52;12.20;;;8.70;;
12363;SDS011;6246;50.826;4.712;2024-01-11T06:02:18;12.67;;;8.37;;
12363;SDS011;6246;50.826;4.712;2024-01-11T06:04:45;11.50;;;8.43;;
12363;SDS011;6246;50.826;4.712;2024-01-11T06:07:12;11.33;;;8.37;;
12363;SDS011;6246;50.826;4.712;2024-01-11T06:09:38;11.83;;;8.67;;
12363;SDS011;6246;50.826;4.712;2024-01-11T06:12:04;10.27;;;7.27;;
12363;SDS011;6246;50.826;4.712;2024-01-11T06:14:30;11.80;;;8.60;;
12363;SDS011;6246;50.826;4.712;2024-01-11T06:16:56;11.17;;;8.10;;
12363;SDS011;6246;50.826;4.712;2024-01-11T06:19:22;13.07;;;8.80;;
12363;SDS011;6246;50.826;4.712;2024-01-11T06:21:49;11.20;;;8.27;;
12363;SDS011;6246;50.826;4.712;2024-01-11T06:24:15;10.53;;;7.63;;
12363;SDS011;6246;50.826;4.712;2024-01-11T06:26:41;11.10;;;8.23;;
12363;SDS011;6246;50.826;4.712;2024-01-11T06:29:07;12.57;;;8.10;;
12363;SDS011;6246;50.826;4.712;2024-01-11T06:31:33;10.47;;;8.03;;
12363;SDS011;6246;50.826;4.712;2024-01-11T06:33:59;12.33;;;8.77;;
12363;SDS011;6246;50.826;4.712;2024-01-11T06:36:25;11.77;;;8.53;;
12363;SDS011;6246;50.826;4.712;2024-01-11T06:38:51;10.87;;;8.10;;
12363;SDS011;6246;50.826;4.712;2024-01-11T06:41:17;11.60;;;7.97;;
12363;SDS011;6246;50.826;4.712;2024-01-11T06:43:43;11.37;;;7.97;;
12363;SDS011;6246;50.826;4.712;2024-01-11T06:46:09;10.93;;;7.67;;
12363;SDS011;6246;50.826;4.712;2024-01-11T06:48:35;11.50;;;8.33;;
12363;SDS011;6246;50.826;4.712;2024-01-11T06:51:03;11.97;;;7.77;;
12363;SDS011;6246;50.826;4.712;2024-01-11T06:53:29;12.17;;;8.60;;
12363;SDS011;6246;50.826;4.712;2024-01-11T06:55:55;12.00;;;8.00;;
12363;SDS011;6246;50.826;4.712;2024-01-11T06:58:21;11.30;;;8.03;;
12363;SDS011;6246;50.826;4.712;2024-01-11T07:00:47;10.73;;;7.77;;
12363;SDS011;6246;50.826;4.712;2024-01-11T07:03:14;15.27;;;8.43;;
12363;SDS011;6246;50.826;4.712;2024-01-11T07:05:40;10.97;;;7.80;;
12363;SDS011;6246;50.826;4.712;2024-01-11T07:08:07;12.33;;;8.07;;
12363;SDS011;6246;50.826;4.712;2024-01-11T07:10:33;11.27;;;8.23;;
12363;SDS011;6246;50.826;4.712;2024-01-11T07:12:59;10.90;;;7.77;;
12363;SDS011;6246;50.826;4.712;2024-01-11T07:15:25;10.80;;;7.83;;
12363;SDS011;6246;50.826;4.712;2024-01-11T07:17:51;13.07;;;8.40;;
12363;SDS011;6246;50.826;4.712;2024-01-11T07:20:18;11.87;;;8.50;;
12363;SDS011;6246;50.826;4.712;2024-01-11T07:22:44;11.57;;;8.23;;
12363;SDS011;6246;50.826;4.712;2024-01-11T07:25:10;12.03;;;8.53;;
12363;SDS011;6246;50.826;4.712;2024-01-11T07:27:36;11.70;;;8.10;;
12363;SDS011;6246;50.826;4.712;2024-01-11T07:30:02;11.13;;;8.00;;
12363;SDS011;6246;50.826;4.712;2024-01-11T07:32:31;12.93;;;8.50;;
12363;SDS011;6246;50.826;4.712;2024-01-11T07:34:57;12.73;;;8.37;;
12363;SDS011;6246;50.826;4.712;2024-01-11T07:37:23;11.37;;;7.77;;
12363;SDS011;6246;50.826;4.712;2024-01-11T07:39:50;11.83;;;8.03;;
12363;SDS011;6246;50.826;4.712;2024-01-11T07:42:16;10.97;;;8.20;;
12363;SDS011;6246;50.826;4.712;2024-01-11T07:44:44;11.57;;;8.20;;
12363;SDS011;6246;50.826;4.712;2024-01-11T07:47:10;12.73;;;8.30;;
12363;SDS011;6246;50.826;4.712;2024-01-11T07:49:36;12.60;;;8.63;;
12363;SDS011;6246;50.826;4.712;2024-01-11T07:52:02;11.57;;;7.90;;
12363;SDS011;6246;50.826;4.712;2024-01-11T07:54:29;11.00;;;8.33;;
12363;SDS011;6246;50.826;4.712;2024-01-11T07:56:56;10.07;;;7.93;;
12363;SDS011;6246;50.826;4.712;2024-01-11T07:59:22;10.53;;;7.63;;
12363;SDS011;6246;50.826;4.712;2024-01-11T08:01:48;12.03;;;8.50;;
12363;SDS011;6246;50.826;4.712;2024-01-11T08:04:14;11.93;;;8.67;;
12363;SDS011;6246;50.826;4.712;2024-01-11T08:06:40;12.27;;;8.50;;
12363;SDS011;6246;50.826;4.712;2024-01-11T08:09:06;13.77;;;8.80;;
12363;SDS011;6246;50.826;4.712;2024-01-11T08:11:35;11.97;;;8.33;;
12363;SDS011;6246;50.826;4.712;2024-01-11T08:14:01;11.97;;;8.50;;
12363;SDS011;6246;50.826;4.712;2024-01-11T08:16:27;11.33;;;8.37;;
12363;SDS011;6246;50.826;4.712;2024-01-11T08:18:53;12.60;;;8.80;;
12363;SDS011;6246;50.826;4.712;2024-01-11T08:21:19;12.60;;;8.83;;
12363;SDS011;6246;50.826;4.712;2024-01-11T08:23:45;11.27;;;8.47;;
12363;SDS011;6246;50.826;4.712;2024-01-11T08:26:14;12.53;;;8.53;;
12363;SDS011;6246;50.826;4.712;2024-01-11T08:28:40;12.50;;;8.23;;
12363;SDS011;6246;50.826;4.712;2024-01-11T08:31:07;12.00;;;8.27;;
12363;SDS011;6246;50.826;4.712;2024-01-11T08:33:33;13.13;;;9.17;;
12363;SDS011;6246;50.826;4.712;2024-01-11T08:36:01;11.67;;;8.27;;
12363;SDS011;6246;50.826;4.712;2024-01-11T08:38:28;12.30;;;8.87;;
12363;SDS011;6246;50.826;4.712;2024-01-11T08:40:55;12.37;;;8.67;;
12363;SDS011;6246;50.826;4.712;2024-01-11T08:43:21;11.83;;;9.20;;
12363;SDS011;6246;50.826;4.712;2024-01-11T08:45:47;12.63;;;8.87;;
12363;SDS011;6246;50.826;4.712;2024-01-11T08:48:13;13.53;;;8.80;;
12363;SDS011;6246;50.826;4.712;2024-01-11T08:50:40;11.10;;;8.30;;
12363;SDS011;6246;50.826;4.712;2024-01-11T08:53:06;13.23;;;8.70;;
12363;SDS011;6246;50.826;4.712;2024-01-11T08:55:32;12.30;;;9.10;;
12363;SDS011;6246;50.826;4.712;2024-01-11T08:57:58;12.13;;;8.70;;
12363;SDS011;6246;50.826;4.712;2024-01-11T09:00:24;12.10;;;8.47;;
12363;SDS011;6246;50.826;4.712;2024-01-11T09:02:50;11.47;;;7.97;;
12363;SDS011;6246;50.826;4.712;2024-01-11T09:05:16;10.60;;;8.23;;
12363;SDS011;6246;50.826;4.712;2024-01-11T09:07:42;11.50;;;8.40;;
12363;SDS011;6246;50.826;4.712;2024-01-11T09:10:08;10.73;;;7.87;;
12363;SDS011;6246;50.826;4.712;2024-01-11T09:12:36;14.40;;;8.40;;
12363;SDS011;6246;50.826;4.712;2024-01-11T09:15:02;15.70;;;8.37;;
12363;SDS011;6246;50.826;4.712;2024-01-11T09:17:28;13.90;;;8.40;;
12363;SDS011;6246;50.826;4.712;2024-01-11T09:19:54;12.87;;;8.70;;
12363;SDS011;6246;50.826;4.712;2024-01-11T09:22:21;13.07;;;8.13;;
12363;SDS011;6246;50.826;4.712;2024-01-11T09:24:47;11.90;;;8.33;;
12363;SDS011;6246;50.826;4.712;2024-01-11T09:27:13;17.90;;;8.63;;
12363;SDS011;6246;50.826;4.712;2024-01-11T09:29:43;13.43;;;8.83;;
12363;SDS011;6246;50.826;4.712;2024-01-11T09:32:09;11.97;;;8.83;;
12363;SDS011;6246;50.826;4.712;2024-01-11T09:34:35;12.57;;;8.67;;
12363;SDS011;6246;50.826;4.712;2024-01-11T09:37:01;12.40;;;8.57;;
12363;SDS011;6246;50.826;4.712;2024-01-11T09:39:28;12.17;;;8.57;;
12363;SDS011;6246;50.826;4.712;2024-01-11T09:41:58;14.17;;;8.93;;
12363;SDS011;6246;50.826;4.712;2024-01-11T09:44:25;13.90;;;8.87;;
12363;SDS011;6246;50.826;4.712;2024-01-11T09:46:52;11.27;;;8.07;;
12363;SDS011;6246;50.826;4.712;2024-01-11T09:49:19;12.70;;;8.67;;
12363;SDS011;6246;50.826;4.712;2024-01-11T09:51:48;11.77;;;8.30;;
12363;SDS011;6246;50.826;4.712;2024-01-11T09:54:14;13.57;;;8.23;;
12363;SDS011;6246;50.826;4.712;2024-01-11T09:56:40;11.60;;;8.47;;
12363;SDS011;6246;50.826;4.712;2024-01-11T09:59:07;11.50;;;8.20;;
12363;SDS011;6246;50.826;4.712;2024-01-11T10:01:34;13.37;;;8.67;;
12363;SDS011;6246;50.826;4.712;2024-01-11T10:04:01;10.97;;;8.37;;
12363;SDS011;6246;50.826;4.712;2024-01-11T10:06:28;14.47;;;8.43;;
12363;SDS011;6246;50.826;4.712;2024-01-11T10:08:58;12.97;;;8.87;;
12363;SDS011;6246;50.826;4.712;2024-01-11T10:11:24;11.40;;;8.20;;
12363;SDS011;6246;50.826;4.712;2024-01-11T10:13:56;11.43;;;8.07;;
12363;SDS011;6246;50.826;4.712;2024-01-11T10:16:22;11.77;;;8.33;;
12363;SDS011;6246;50.826;4.712;2024-01-11T10:18:49;12.77;;;7.97;;
12363;SDS011;6246;50.826;4.712;2024-01-11T10:21:15;14.00;;;8.53;;
12363;SDS011;6246;50.826;4.712;2024-01-11T10:23:41;11.40;;;8.10;;
12363;SDS011;6246;50.826;4.712;2024-01-11T10:26:07;13.10;;;8.17;;
12363;SDS011;6246;50.826;4.712;2024-01-11T10:28:33;12.60;;;8.60;;
12363;SDS011;6246;50.826;4.712;2024-01-11T10:31:02;11.77;;;8.30;;
12363;SDS011;6246;50.826;4.712;2024-01-11T10:33:32;12.37;;;8.67;;
12363;SDS011;6246;50.826;4.712;2024-01-11T10:35:59;14.00;;;8.20;;
12363;SDS011;6246;50.826;4.712;2024-01-11T10:38:26;15.40;;;10.00;;
12363;SDS011;6246;50.826;4.712;2024-01-11T10:40:53;17.20;;;9.60;;
12363;SDS011;6246;50.826;4.712;2024-01-11T10:43:21;15.00;;;10.20;;
12363;SDS011;6246;50.826;4.712;2024-01-11T10:45:51;13.43;;;9.33;;
12363;SDS011;6246;50.826;4.712;2024-01-11T10:48:19;13.93;;;9.43;;
12363;SDS011;6246;50.826;4.712;2024-01-11T10:50:49;13.20;;;9.07;;
12363;SDS011;6246;50.826;4.712;2024-01-11T10:56:00;14.80;;;9.97;;
12363;SDS011;6246;50.826;4.712;2024-01-11T10:58:27;15.57;;;10.50;;
12363;SDS011;6246;50.826;4.712;2024-01-11T11:00:54;13.00;;;9.40;;
12363;SDS011;6246;50.826;4.712;2024-01-11T11:03:20;16.37;;;10.20;;
12363;SDS011;6246;50.826;4.712;2024-01-11T11:05:49;14.87;;;10.13;;
12363;SDS011;6246;50.826;4.712;2024-01-11T11:08:16;14.40;;;9.57;;
12363;SDS011;6246;50.826;4.712;2024-01-11T11:10:43;14.17;;;9.67;;
12363;SDS011;6246;50.826;4.712;2024-01-11T11:13:12;15.13;;;10.40;;
12363;SDS011;6246;50.826;4.712;2024-01-11T11:15:41;12.40;;;10.07;;
12363;SDS011;6246;50.826;4.712;2024-01-11T11:18:08;13.60;;;9.67;;
12363;SDS011;6246;50.826;4.712;2024-01-11T11:20:35;14.33;;;10.27;;
12363;SDS011;6246;50.826;4.712;2024-01-11T11:23:07;13.50;;;10.40;;
12363;SDS011;6246;50.826;4.712;2024-01-11T11:25:34;14.73;;;9.97;;
12363;SDS011;6246;50.826;4.712;2024-01-11T11:28:01;13.20;;;9.73;;
12363;SDS011;6246;50.826;4.712;2024-01-11T11:30:29;14.37;;;10.50;;
12363;SDS011;6246;50.826;4.712;2024-01-11T11:32:55;15.00;;;10.60;;
12363;SDS011;6246;50.826;4.712;2024-01-11T11:35:24;13.37;;;10.07;;
12363;SDS011;6246;50.826;4.712;2024-01-11T11:37:55;14.27;;;10.43;;
12363;SDS011;6246;50.826;4.712;2024-01-11T11:40:22;13.30;;;9.90;;
12363;SDS011;6246;50.826;4.712;2024-01-11T11:42:57;15.07;;;10.43;;
12363;SDS011;6246;50.826;4.712;2024-01-11T11:45:26;12.97;;;9.00;;
12363;SDS011;6246;50.826;4.712;2024-01-11T11:47:52;13.50;;;10.47;;
12363;SDS011;6246;50.826;4.712;2024-01-11T11:50:21;13.17;;;9.73;;
12363;SDS011;6246;50.826;4.712;2024-01-11T11:52:53;13.67;;;9.67;;
12363;SDS011;6246;50.826;4.712;2024-01-11T11:55:19;14.47;;;9.90;;
12363;SDS011;6246;50.826;4.712;2024-01-11T11:57:45;13.03;;;9.90;;
12363;SDS011;6246;50.826;4.712;2024-01-11T12:00:11;13.00;;;10.00;;
12363;SDS011;6246;50.826;4.712;2024-01-11T12:02:37;13.57;;;10.00;;
12363;SDS011;6246;50.826;4.712;2024-01-11T12:05:04;12.90;;;9.37;;
12363;SDS011;6246;50.826;4.712;2024-01-11T12:07:30;14.17;;;9.73;;
12363;SDS011;6246;50.826;4.712;2024-01-11T12:09:56;11.40;;;9.40;;
12363;SDS011;6246;50.826;4.712;2024-01-11T12:12:22;11.70;;;8.50;;
12363;SDS011;6246;50.826;4.712;2024-01-11T12:14:49;11.70;;;9.33;;
12363;SDS011;6246;50.826;4.712;2024-01-11T12:17:15;12.30;;;9.10;;
12363;SDS011;6246;50.826;4.712;2024-01-11T12:19:42;11.97;;;9.17;;
12363;SDS011;6246;50.826;4.712;2024-01-11T12:22:08;12.30;;;8.97;;
12363;SDS011;6246;50.826;4.712;2024-01-11T12:24:34;11.67;;;9.20;;
12363;SDS011;6246;50.826;4.712;2024-01-11T12:27:00;12.47;;;9.77;;
12363;SDS011;6246;50.826;4.712;2024-01-11T12:29:30;14.70;;;9.47;;
12363;SDS011;6246;50.826;4.712;2024-01-11T12:31:59;14.33;;;10.27;;
12363;SDS011;6246;50.826;4.712;2024-01-11T12:34:28;13.73;;;9.53;;
12363;SDS011;6246;50.826;4.712;2024-01-11T12:36:54;13.83;;;9.37;;
12363;SDS011;6246;50.826;4.712;2024-01-11T12:39:25;14.17;;;9.30;;
12363;SDS011;6246;50.826;4.712;2024-01-11T12:41:52;11.80;;;8.90;;
12363;SDS011;6246;50.826;4.712;2024-01-11T12:44:22;11.40;;;8.90;;
12363;SDS011;6246;50.826;4.712;2024-01-11T12:46:48;10.77;;;8.60;;
12363;SDS011;6246;50.826;4.712;2024-01-11T12:49:15;11.33;;;9.07;;
12363;SDS011;6246;50.826;4.712;2024-01-11T12:51:41;11.40;;;8.47;;
12363;SDS011;6246;50.826;4.712;2024-01-11T12:54:13;14.77;;;9.17;;
12363;SDS011;6246;50.826;4.712;2024-01-11T12:56:42;12.37;;;8.87;;
12363;SDS011;6246;50.826;4.712;2024-01-11T12:59:08;11.20;;;8.80;;
12363;SDS011;6246;50.826;4.712;2024-01-11T13:01:36;14.27;;;9.13;;
12363;SDS011;6246;50.826;4.712;2024-01-11T13:04:03;14.83;;;9.53;;
12363;SDS011;6246;50.826;4.712;2024-01-11T13:06:29;12.47;;;9.23;;
12363;SDS011;6246;50.826;4.712;2024-01-11T13:08:56;14.53;;;9.63;;
12363;SDS011;6246;50.826;4.712;2024-01-11T13:11:22;11.83;;;8.13;;
12363;SDS011;6246;50.826;4.712;2024-01-11T13:13:49;11.60;;;8.90;;
12363;SDS011;6246;50.826;4.712;2024-01-11T13:16:16;14.67;;;8.77;;
12363;SDS011;6246;50.826;4.712;2024-01-11T13:18:44;13.23;;;9.37;;
12363;SDS011;6246;50.826;4.712;2024-01-11T13:21:10;15.03;;;8.67;;
12363;SDS011;6246;50.826;4.712;2024-01-11T13:23:37;12.90;;;9.53;;
12363;SDS011;6246;50.826;4.712;2024-01-11T13:26:04;11.13;;;8.37;;
12363;SDS011;6246;50.826;4.712;2024-01-11T13:28:31;12.30;;;9.13;;
12363;SDS011;6246;50.826;4.712;2024-01-11T13:30:57;10.67;;;8.20;;
12363;SDS011;6246;50.826;4.712;2024-01-11T13:33:24;11.70;;;8.57;;
12363;SDS011;6246;50.826;4.712;2024-01-11T13:35:50;10.87;;;8.00;;
12363;SDS011;6246;50.826;4.712;2024-01-11T13:38:16;14.13;;;9.10;;
12363;SDS011;6246;50.826;4.712;2024-01-11T13:40:42;12.20;;;8.20;;
12363;SDS011;6246;50.826;4.712;2024-01-11T13:43:08;12.93;;;9.47;;
12363;SDS011;6246;50.826;4.712;2024-01-11T13:45:35;11.63;;;9.10;;
12363;SDS011;6246;50.826;4.712;2024-01-11T13:48:02;12.10;;;8.90;;
12363;SDS011;6246;50.826;4.712;2024-01-11T13:50:28;14.87;;;9.97;;
12363;SDS011;6246;50.826;4.712;2024-01-11T13:52:54;13.10;;;9.23;;
12363;SDS011;6246;50.826;4.712;2024-01-11T13:55:20;12.40;;;9.37;;
12363;SDS011;6246;50.826;4.712;2024-01-11T13:57:46;11.80;;;9.63;;
12363;SDS011;6246;50.826;4.712;2024-01-11T14:00:13;12.43;;;9.70;;
12363;SDS011;6246;50.826;4.712;2024-01-11T14:02:39;13.77;;;10.27;;
12363;SDS011;6246;50.826;4.712;2024-01-11T14:05:09;11.90;;;9.50;;
12363;SDS011;6246;50.826;4.712;2024-01-11T14:07:38;12.57;;;9.57;;
12363;SDS011;6246;50.826;4.712;2024-01-11T14:10:04;11.70;;;8.90;;
12363;SDS011;6246;50.826;4.712;2024-01-11T14:12:31;11.60;;;8.70;;
12363;SDS011;6246;50.826;4.712;2024-01-11T14:14:57;12.87;;;8.97;;
12363;SDS011;6246;50.826;4.712;2024-01-11T14:17:23;10.67;;;8.33;;
12363;SDS011;6246;50.826;4.712;2024-01-11T14:19:49;12.07;;;8.77;;
12363;SDS011;6246;50.826;4.712;2024-01-11T14:22:15;12.83;;;9.73;;
12363;SDS011;6246;50.826;4.712;2024-01-11T14:24:41;12.30;;;9.40;;
12363;SDS011;6246;50.826;4.712;2024-01-11T14:27:07;12.87;;;9.23;;
12363;SDS011;6246;50.826;4.712;2024-01-11T14:29:34;12.80;;;9.40;;
12363;SDS011;6246;50.826;4.712;2024-01-11T14:32:00;11.47;;;8.80;;
12363;SDS011;6246;50.826;4.712;2024-01-11T14:34:26;16.23;;;12.13;;
12363;SDS011;6246;50.826;4.712;2024-01-11T14:36:52;12.57;;;9.87;;
12363;SDS011;6246;50.826;4.712;2024-01-11T14:39:18;12.70;;;8.87;;
12363;SDS011;6246;50.826;4.712;2024-01-11T14:41:44;12.27;;;9.07;;
12363;SDS011;6246;50.826;4.712;2024-01-11T14:44:10;11.87;;;9.37;;